createdAt,value
2023-05-23T00:02:23.452Z,1.50
2023-05-23T00:04:50.209Z,1.80
2023-05-23T00:07:16.834Z,1.50
2023-05-23T00:09:43.477Z,2.00
2023-05-23T00:12:10.427Z,1.90
2023-05-23T00:14:37.035Z,2.13
2023-05-23T00:17:05.135Z,1.20
2023-05-23T00:19:32.269Z,1.70
2023-05-23T00:21:58.969Z,1.30
2023-05-23T00:24:25.793Z,1.50
2023-05-23T00:26:52.476Z,2.10
2023-05-23T00:29:19.613Z,1.23
2023-05-23T00:31:46.722Z,1.80
2023-05-23T00:34:14.880Z,1.40
2023-05-23T00:36:44.242Z,1.40
2023-05-23T00:39:19.548Z,1.23
2023-05-23T00:41:51.102Z,1.20
2023-05-23T00:44:20.076Z,2.03
2023-05-23T00:46:52.169Z,1.03
2023-05-23T00:49:20.109Z,1.37
2023-05-23T00:51:49.382Z,2.00
2023-05-23T00:54:20.927Z,1.20
2023-05-23T00:56:48.611Z,2.50
2023-05-23T00:59:16.227Z,0.90
2023-05-23T01:01:46.559Z,1.00
2023-05-23T01:04:13.971Z,1.67
2023-05-23T01:06:40.675Z,1.07
2023-05-23T01:09:08.050Z,1.23
2023-05-23T01:11:43.570Z,2.40
2023-05-23T01:14:21.871Z,2.03
2023-05-23T01:16:57.943Z,2.07
2023-05-23T01:19:47.446Z,1.07
2023-05-23T01:22:26.458Z,1.47
2023-05-23T01:24:55.431Z,1.20
2023-05-23T01:27:46.425Z,1.90
2023-05-23T01:30:17.757Z,0.90
2023-05-23T01:32:45.311Z,3.90
2023-05-23T01:35:12.769Z,1.93
2023-05-23T01:37:40.937Z,1.40
2023-05-23T01:40:08.137Z,1.40
2023-05-23T01:42:34.814Z,1.40
2023-05-23T01:45:01.569Z,1.07
2023-05-23T01:47:28.913Z,1.03
2023-05-23T01:49:57.120Z,1.53
2023-05-23T01:52:24.204Z,1.10
2023-05-23T01:54:51.674Z,1.40
2023-05-23T01:57:19.545Z,1.63
2023-05-23T01:59:46.477Z,1.17
2023-05-23T02:02:13.297Z,1.90
2023-05-23T02:04:40.042Z,1.67
2023-05-23T02:07:07.222Z,1.23
2023-05-23T02:09:34.005Z,1.80
2023-05-23T02:12:00.657Z,1.83
2023-05-23T02:14:28.373Z,1.60
2023-05-23T02:16:55.123Z,2.50
2023-05-23T02:19:21.884Z,1.23
2023-05-23T02:21:48.542Z,1.17
2023-05-23T02:24:15.292Z,1.60
2023-05-23T02:26:42.123Z,1.43
2023-05-23T02:29:08.851Z,1.10
2023-05-23T02:31:36.483Z,1.80
2023-05-23T02:34:03.193Z,1.10
2023-05-23T02:36:29.874Z,1.37
2023-05-23T02:38:56.716Z,1.93
2023-05-23T02:41:23.340Z,1.50
2023-05-23T02:43:49.918Z,1.17
2023-05-23T02:46:16.596Z,1.07
2023-05-23T02:48:43.334Z,2.00
2023-05-23T02:51:09.963Z,1.40
2023-05-23T02:53:36.636Z,1.93
2023-05-23T02:56:03.284Z,2.20
2023-05-23T02:58:30.227Z,1.40
2023-05-23T03:00:57.061Z,0.90
2023-05-23T03:03:23.821Z,1.70
2023-05-23T03:05:51.464Z,1.50
2023-05-23T03:08:18.110Z,1.03
2023-05-23T03:10:44.732Z,2.80
2023-05-23T03:13:11.411Z,1.43
2023-05-23T03:15:38.078Z,1.77
2023-05-23T03:18:04.847Z,1.10
2023-05-23T03:20:31.522Z,2.50
2023-05-23T03:22:58.139Z,1.20
2023-05-23T03:25:24.805Z,1.20
2023-05-23T03:27:51.733Z,1.17
2023-05-23T03:30:18.395Z,1.20
2023-05-23T03:32:45.110Z,1.00
2023-05-23T03:35:12.140Z,1.53
2023-05-23T03:37:38.964Z,0.93
2023-05-23T03:40:07.256Z,2.33
2023-05-23T03:42:33.847Z,1.87
2023-05-23T03:45:00.599Z,1.00
2023-05-23T03:47:27.295Z,2.10
2023-05-23T03:49:53.950Z,1.23
2023-05-23T03:52:20.691Z,1.50
2023-05-23T03:54:47.357Z,1.47
2023-05-23T03:57:14.009Z,1.33
2023-05-23T03:59:40.978Z,1.87
2023-05-23T04:02:07.725Z,1.37
2023-05-23T04:04:35.127Z,1.13
2023-05-23T04:07:02.535Z,1.77
2023-05-23T04:09:29.210Z,1.37
2023-05-23T04:11:56.073Z,1.53
2023-05-23T04:14:24.135Z,1.00
2023-05-23T04:16:50.737Z,1.10
2023-05-23T04:19:17.603Z,1.83
2023-05-23T04:21:44.412Z,1.33
2023-05-23T04:24:11.309Z,2.10
2023-05-23T04:26:37.940Z,1.10
2023-05-23T04:29:06.111Z,1.27
2023-05-23T04:31:34.174Z,0.97
2023-05-23T04:34:02.387Z,1.30
2023-05-23T04:36:30.124Z,1.10
2023-05-23T04:38:56.734Z,0.80
2023-05-23T04:41:23.789Z,1.23
2023-05-23T04:43:54.117Z,1.23
2023-05-23T04:46:27.231Z,2.67
2023-05-23T04:48:55.238Z,1.33
2023-05-23T04:51:22.316Z,0.93
2023-05-23T04:53:49.979Z,0.93
2023-05-23T04:56:21.841Z,1.43
2023-05-23T04:58:49.248Z,1.17
2023-05-23T05:01:15.987Z,1.60
2023-05-23T05:03:42.818Z,1.30
2023-05-23T05:06:09.666Z,1.00
2023-05-23T05:08:36.832Z,1.30
2023-05-23T05:11:03.486Z,1.20
2023-05-23T05:13:30.108Z,1.00
2023-05-23T05:15:57.010Z,0.87
2023-05-23T05:18:23.662Z,1.33
2023-05-23T05:20:50.319Z,1.83
2023-05-23T05:23:16.988Z,0.90
2023-05-23T05:25:43.673Z,0.97
2023-05-23T05:28:10.422Z,1.13
2023-05-23T05:30:37.444Z,1.97
2023-05-23T05:33:06.065Z,1.20
2023-05-23T05:35:33.459Z,1.27
2023-05-23T05:38:01.532Z,0.97
2023-05-23T05:40:28.441Z,1.10
2023-05-23T05:42:55.060Z,2.17
2023-05-23T05:45:21.793Z,0.90
2023-05-23T05:47:48.537Z,1.13
2023-05-23T05:50:15.277Z,1.80
2023-05-23T05:52:42.292Z,0.90
2023-05-23T05:55:13.401Z,1.37
2023-05-23T05:57:41.006Z,1.10
2023-05-23T06:00:15.318Z,1.53
2023-05-23T06:02:43.213Z,1.30
2023-05-23T06:05:12.359Z,1.43
2023-05-23T06:07:42.741Z,1.20
2023-05-23T06:10:12.689Z,2.17
2023-05-23T06:12:39.726Z,1.80
2023-05-23T06:15:07.401Z,1.60
2023-05-23T06:17:34.148Z,1.17
2023-05-23T06:20:00.922Z,1.50
2023-05-23T06:22:27.681Z,1.70
2023-05-23T06:24:54.320Z,2.03
2023-05-23T06:27:20.961Z,1.20
2023-05-23T06:29:47.641Z,1.50
2023-05-23T06:32:14.279Z,2.47
2023-05-23T06:34:41.011Z,2.20
2023-05-23T06:37:07.667Z,2.60
2023-05-23T06:39:34.335Z,1.93
2023-05-23T06:42:01.404Z,1.60
2023-05-23T06:44:28.184Z,1.00
2023-05-23T06:46:57.481Z,1.90
2023-05-23T06:49:24.626Z,3.10
2023-05-23T06:51:52.187Z,1.93
2023-05-23T06:54:19.466Z,1.50
2023-05-23T06:56:46.305Z,3.73
2023-05-23T06:59:13.079Z,2.63
2023-05-23T07:01:39.958Z,3.23
2023-05-23T07:04:06.826Z,2.00
2023-05-23T07:06:36.389Z,4.37
2023-05-23T07:09:04.076Z,3.70
2023-05-23T07:11:31.125Z,3.70
2023-05-23T07:13:58.927Z,2.97
2023-05-23T07:16:25.804Z,2.57
2023-05-23T07:18:52.508Z,2.57
2023-05-23T07:21:19.171Z,1.93
2023-05-23T07:23:45.950Z,2.67
2023-05-23T07:26:12.709Z,3.40
2023-05-23T07:28:39.501Z,4.23
2023-05-23T07:31:09.205Z,6.60
2023-05-23T07:33:35.982Z,5.07
2023-05-23T07:36:03.604Z,5.60
2023-05-23T07:38:30.289Z,4.27
2023-05-23T07:41:10.006Z,3.80
2023-05-23T07:43:37.115Z,3.70
2023-05-23T07:46:03.779Z,5.20
2023-05-23T07:48:31.941Z,4.80
2023-05-23T07:50:58.636Z,4.57
2023-05-23T07:53:25.983Z,4.43
2023-05-23T07:55:52.660Z,5.00
2023-05-23T07:58:19.307Z,3.37
2023-05-23T08:00:46.019Z,5.70
2023-05-23T08:03:13.295Z,2.83
2023-05-23T08:05:40.051Z,4.03
2023-05-23T08:08:06.704Z,4.53
2023-05-23T08:10:33.488Z,6.50
2023-05-23T08:13:00.931Z,3.70
2023-05-23T08:15:28.758Z,4.30
2023-05-23T08:17:57.223Z,5.30
2023-05-23T08:20:30.882Z,6.07
2023-05-23T08:23:03.927Z,4.13
2023-05-23T08:25:33.677Z,3.97
2023-05-23T08:28:01.479Z,4.47
2023-05-23T08:30:29.188Z,4.43
2023-05-23T08:32:56.915Z,4.67
2023-05-23T08:35:24.219Z,3.60
2023-05-23T08:37:52.108Z,4.70
2023-05-23T08:40:21.334Z,4.20
2023-05-23T08:42:50.039Z,4.97
2023-05-23T08:45:17.936Z,4.27
2023-05-23T08:47:45.915Z,6.50
2023-05-23T08:50:14.724Z,4.47
2023-05-23T08:52:55.717Z,7.70
2023-05-23T08:55:28.325Z,6.13
2023-05-23T08:58:01.408Z,6.00
2023-05-23T09:00:28.287Z,5.00
2023-05-23T09:02:55.835Z,5.40
2023-05-23T09:05:23.008Z,5.90
2023-05-23T09:07:50.993Z,4.70
2023-05-23T09:10:20.232Z,5.73
2023-05-23T09:12:47.299Z,7.00
2023-05-23T09:15:14.671Z,6.90
2023-05-23T09:17:41.519Z,5.10
2023-05-23T09:20:14.172Z,4.33
2023-05-23T09:22:41.325Z,4.23
2023-05-23T09:25:08.615Z,7.70
2023-05-23T09:27:36.093Z,4.13
2023-05-23T09:30:09.726Z,6.13
2023-05-23T09:32:36.678Z,5.37
2023-05-23T09:35:05.659Z,4.73
2023-05-23T09:37:34.723Z,4.23
2023-05-23T09:40:06.282Z,3.90
2023-05-23T09:42:36.487Z,5.33
2023-05-23T09:45:04.899Z,4.93
2023-05-23T09:47:32.320Z,4.53
2023-05-23T09:49:59.021Z,4.40
2023-05-23T09:52:26.482Z,3.87
2023-05-23T09:54:54.399Z,5.57
2023-05-23T09:57:23.458Z,4.93
2023-05-23T09:59:56.413Z,5.37
2023-05-23T10:02:55.684Z,4.10
2023-05-23T10:05:40.795Z,4.50
2023-05-23T10:08:21.965Z,3.90
2023-05-23T10:10:57.954Z,3.20
2023-05-23T10:13:28.780Z,2.90
2023-05-23T10:16:02.798Z,3.60
2023-05-23T10:18:33.406Z,3.10
2023-05-23T10:21:09.459Z,3.90
2023-05-23T10:23:37.636Z,3.83
2023-05-23T10:26:05.274Z,3.03
2023-05-23T10:28:33.089Z,3.23
2023-05-23T10:31:00.368Z,3.83
2023-05-23T10:33:32.660Z,2.20
2023-05-23T10:36:21.824Z,4.33
2023-05-23T10:39:32.849Z,3.73
2023-05-23T10:42:04.749Z,3.50
2023-05-23T10:44:31.655Z,5.00
2023-05-23T10:47:02.367Z,3.00
2023-05-23T10:49:41.584Z,2.70
2023-05-23T10:52:10.122Z,3.67
2023-05-23T10:54:48.582Z,3.93
2023-05-23T10:57:27.670Z,3.60
2023-05-23T10:59:54.403Z,3.73
2023-05-23T11:02:28.715Z,3.20
2023-05-23T11:05:21.123Z,3.30
2023-05-23T11:08:10.704Z,2.53
2023-05-23T11:11:00.004Z,3.40
2023-05-23T11:13:47.340Z,2.60
2023-05-23T11:16:25.079Z,3.10
2023-05-23T11:18:51.808Z,2.43
2023-05-23T11:21:21.112Z,3.23
2023-05-23T11:23:54.227Z,4.73
2023-05-23T11:26:31.284Z,3.80
2023-05-23T11:28:59.273Z,2.90
2023-05-23T11:31:26.855Z,2.80
2023-05-23T11:33:54.226Z,2.03
2023-05-23T11:36:23.906Z,3.87
2023-05-23T11:38:52.577Z,2.93
2023-05-23T11:41:19.431Z,3.67
2023-05-23T11:43:52.589Z,4.00
2023-05-23T11:46:19.366Z,2.83
2023-05-23T11:48:47.168Z,2.63
2023-05-23T11:51:15.308Z,2.93
2023-05-23T11:53:42.138Z,2.17
2023-05-23T11:56:09.245Z,2.67
2023-05-23T11:58:37.934Z,2.50
2023-05-23T12:01:06.961Z,3.40
2023-05-23T12:03:49.430Z,4.67
2023-05-23T12:06:18.721Z,4.00
2023-05-23T12:08:46.760Z,6.73
2023-05-23T12:11:14.070Z,4.23
2023-05-23T12:13:42.218Z,3.33
2023-05-23T12:16:09.532Z,5.10
2023-05-23T12:18:38.012Z,3.20
2023-05-23T12:21:08.594Z,3.73
2023-05-23T12:23:36.139Z,4.73
2023-05-23T12:26:07.693Z,3.57
2023-05-23T12:28:45.704Z,2.90
2023-05-23T12:31:21.792Z,4.73
2023-05-23T12:33:49.678Z,3.93
2023-05-23T12:36:23.110Z,3.90
2023-05-23T12:38:49.811Z,3.23
2023-05-23T12:41:19.656Z,3.03
2023-05-23T12:43:54.503Z,3.40
2023-05-23T12:46:22.328Z,4.10
2023-05-23T12:48:49.319Z,4.73
2023-05-23T12:51:16.438Z,3.33
2023-05-23T12:53:43.396Z,3.30
2023-05-23T12:56:10.356Z,3.70
2023-05-23T12:58:37.019Z,3.27
2023-05-23T13:01:03.923Z,5.20
2023-05-23T13:03:32.333Z,3.10
2023-05-23T13:05:59.932Z,4.40
2023-05-23T13:08:27.558Z,3.17
2023-05-23T13:10:54.417Z,3.73
2023-05-23T13:13:21.253Z,3.03
2023-05-23T13:15:49.692Z,2.03
2023-05-23T13:18:17.804Z,4.17
2023-05-23T13:20:44.480Z,5.00
2023-05-23T13:23:11.195Z,4.67
2023-05-23T13:25:37.865Z,4.40
2023-05-23T13:28:04.653Z,4.40
2023-05-23T13:30:31.450Z,5.50
2023-05-23T13:32:58.110Z,4.60
2023-05-23T13:35:24.802Z,4.70
2023-05-23T13:37:51.709Z,5.47
2023-05-23T13:40:20.216Z,4.90
2023-05-23T13:42:49.532Z,4.60
2023-05-23T13:45:16.567Z,3.50
2023-05-23T13:47:43.666Z,4.90
2023-05-23T13:50:10.771Z,5.33
2023-05-23T13:52:37.457Z,3.67
2023-05-23T13:55:05.773Z,2.77
2023-05-23T13:57:32.636Z,4.77
2023-05-23T13:59:59.305Z,3.70
2023-05-23T14:02:27.357Z,4.77
2023-05-23T14:04:54.073Z,4.07
2023-05-23T14:07:22.136Z,5.80
2023-05-23T14:09:48.990Z,3.97
2023-05-23T14:12:15.686Z,4.50
2023-05-23T14:14:42.341Z,3.03
2023-05-23T14:17:17.087Z,4.60
2023-05-23T14:19:44.417Z,4.93
2023-05-23T14:22:11.420Z,4.10
2023-05-23T14:24:38.174Z,3.73
2023-05-23T14:27:05.009Z,4.23
2023-05-23T14:29:31.964Z,3.83
2023-05-23T14:32:00.749Z,3.67
2023-05-23T14:34:27.657Z,4.50
2023-05-23T14:36:54.501Z,4.00
2023-05-23T14:39:21.265Z,5.87
2023-05-23T14:41:47.977Z,5.40
2023-05-23T14:44:14.645Z,5.03
2023-05-23T14:46:42.684Z,3.30
2023-05-23T14:49:09.397Z,5.87
2023-05-23T14:54:09.517Z,4.70
2023-05-23T14:56:37.687Z,3.50
2023-05-23T14:59:05.648Z,4.73
2023-05-23T15:01:32.959Z,5.30
2023-05-23T15:04:00.311Z,4.00
2023-05-23T15:06:27.080Z,5.43
2023-05-23T15:08:53.821Z,4.83
2023-05-23T15:11:20.838Z,5.40
2023-05-23T15:13:47.624Z,4.93
2023-05-23T15:16:14.374Z,5.87
2023-05-23T15:18:42.071Z,3.90
2023-05-23T15:21:09.134Z,5.50
2023-05-23T15:23:36.553Z,4.03
2023-05-23T15:26:03.314Z,4.70
2023-05-23T15:28:30.031Z,4.10
2023-05-23T15:30:57.128Z,4.00
2023-05-23T15:33:23.929Z,4.83
2023-05-23T15:35:51.183Z,3.50
2023-05-23T15:38:20.000Z,4.13
2023-05-23T15:40:48.937Z,5.53
2023-05-23T15:43:15.888Z,3.77
2023-05-23T15:45:42.853Z,5.60
2023-05-23T15:48:09.599Z,4.40
2023-05-23T15:50:36.274Z,4.63
2023-05-23T15:53:02.922Z,3.73
2023-05-23T15:55:29.718Z,4.37
2023-05-23T15:57:56.665Z,5.50
2023-05-23T16:00:23.397Z,5.13
2023-05-23T16:02:50.122Z,4.80
2023-05-23T16:05:16.994Z,6.13
2023-05-23T16:07:45.479Z,4.27
2023-05-23T16:10:13.177Z,4.77
2023-05-23T16:12:39.811Z,3.60
2023-05-23T16:15:06.854Z,4.23
2023-05-23T16:17:34.052Z,4.47
2023-05-23T16:20:02.984Z,5.00
2023-05-23T16:22:30.588Z,4.60
2023-05-23T16:24:58.008Z,4.40
2023-05-23T16:27:24.820Z,4.20
2023-05-23T16:29:51.580Z,4.67
2023-05-23T16:32:18.313Z,4.17
2023-05-23T16:34:49.616Z,3.20
2023-05-23T16:37:19.454Z,2.80
2023-05-23T16:39:46.392Z,3.57
2023-05-23T16:42:13.064Z,3.70
2023-05-23T16:44:39.892Z,2.10
2023-05-23T16:47:06.708Z,3.17
2023-05-23T16:49:33.471Z,3.60
2023-05-23T16:52:00.136Z,3.03
2023-05-23T16:54:27.001Z,2.50
2023-05-23T16:56:53.656Z,3.03
2023-05-23T16:59:20.447Z,2.50
2023-05-23T17:01:47.335Z,3.73
2023-05-23T17:04:14.138Z,2.77
2023-05-23T17:06:40.754Z,4.07
2023-05-23T17:09:07.450Z,2.37
2023-05-23T17:11:34.112Z,2.73
2023-05-23T17:14:00.787Z,2.80
2023-05-23T17:16:30.082Z,2.50
2023-05-23T17:18:56.876Z,3.47
2023-05-23T17:21:23.592Z,2.50
2023-05-23T17:23:50.460Z,2.20
2023-05-23T17:26:19.527Z,4.80
2023-05-23T17:28:47.069Z,3.50
2023-05-23T17:31:13.843Z,2.97
2023-05-23T17:33:40.539Z,3.50
2023-05-23T17:36:07.279Z,3.30
2023-05-23T17:38:34.083Z,1.93
2023-05-23T17:41:00.774Z,2.63
2023-05-23T17:43:27.418Z,2.43
2023-05-23T17:45:55.805Z,2.77
2023-05-23T17:48:38.274Z,3.13
2023-05-23T17:51:11.103Z,4.07
2023-05-23T17:53:41.105Z,3.33
2023-05-23T17:56:11.289Z,3.40
2023-05-23T17:58:40.274Z,2.43
2023-05-23T18:01:08.508Z,2.80
2023-05-23T18:03:35.246Z,2.73
2023-05-23T18:06:01.939Z,2.80
2023-05-23T18:08:28.619Z,1.60
2023-05-23T18:10:55.410Z,2.33
2023-05-23T18:13:22.175Z,1.87
2023-05-23T18:15:48.905Z,3.23
2023-05-23T18:18:16.891Z,3.40
2023-05-23T18:20:44.265Z,2.40
2023-05-23T18:23:11.927Z,2.10
2023-05-23T18:25:38.665Z,3.63
2023-05-23T18:28:05.359Z,3.00
2023-05-23T18:30:32.111Z,2.80
2023-05-23T18:32:58.991Z,6.17
2023-05-23T18:35:25.962Z,4.50
2023-05-23T18:37:54.217Z,4.60
2023-05-23T18:40:23.681Z,2.60
2023-05-23T18:42:50.644Z,4.30
2023-05-23T18:45:17.411Z,4.53
2023-05-23T18:47:44.713Z,3.73
2023-05-23T18:50:13.061Z,4.50
2023-05-23T18:52:40.177Z,2.90
2023-05-23T18:55:07.594Z,2.77
2023-05-23T18:57:34.439Z,3.13
2023-05-23T19:00:04.032Z,4.00
2023-05-23T19:02:31.155Z,2.33
2023-05-23T19:04:57.954Z,3.40
2023-05-23T19:07:24.597Z,4.40
2023-05-23T19:09:51.358Z,3.30
2023-05-23T19:12:18.826Z,3.80
2023-05-23T19:14:45.540Z,3.37
2023-05-23T19:17:12.161Z,1.77
2023-05-23T19:19:38.851Z,2.50
2023-05-23T19:22:05.536Z,2.30
2023-05-23T19:24:32.245Z,3.43
2023-05-23T19:26:59.099Z,4.83
2023-05-23T19:29:26.468Z,4.40
2023-05-23T19:31:53.704Z,3.73
2023-05-23T19:34:20.413Z,2.83
2023-05-23T19:36:47.054Z,3.20
2023-05-23T19:39:14.916Z,3.03
2023-05-23T19:41:41.911Z,3.10
2023-05-23T19:44:09.223Z,2.70
2023-05-23T19:46:36.115Z,3.60
2023-05-23T19:49:02.885Z,3.40
2023-05-23T19:51:29.513Z,4.23
2023-05-23T19:53:56.344Z,3.40
2023-05-23T19:56:23.712Z,2.40
2023-05-23T19:58:50.585Z,3.20
2023-05-23T20:01:17.331Z,3.67
2023-05-23T20:03:44.411Z,2.83
2023-05-23T20:06:11.187Z,3.80
2023-05-23T20:08:37.929Z,3.43
2023-05-23T20:11:05.760Z,3.63
2023-05-23T20:13:32.528Z,4.17
2023-05-23T20:15:59.310Z,3.83
2023-05-23T20:18:25.979Z,2.90
2023-05-23T20:20:53.506Z,4.80
2023-05-23T20:23:20.466Z,4.27
2023-05-23T20:25:47.212Z,2.57
2023-05-23T20:28:13.912Z,2.30
2023-05-23T20:30:41.062Z,2.20
2023-05-23T20:33:07.850Z,4.40
2023-05-23T20:35:34.674Z,2.50
2023-05-23T20:38:01.377Z,3.70
2023-05-23T20:40:29.666Z,3.30
2023-05-23T20:43:00.534Z,3.00
2023-05-23T20:45:27.665Z,3.43
2023-05-23T20:47:54.350Z,3.53
2023-05-23T20:50:23.797Z,3.63
2023-05-23T20:52:51.940Z,2.50
2023-05-23T20:55:18.810Z,3.80
2023-05-23T20:57:45.620Z,2.13
2023-05-23T21:00:13.251Z,1.90
2023-05-23T21:02:41.214Z,2.87
2023-05-23T21:05:09.532Z,4.23
2023-05-23T21:07:36.591Z,2.17
2023-05-23T21:10:03.583Z,2.43
2023-05-23T21:12:30.448Z,1.73
2023-05-23T21:14:57.124Z,2.20
2023-05-23T21:17:24.067Z,1.80
2023-05-23T21:19:51.045Z,1.83
2023-05-23T21:22:17.684Z,3.00
2023-05-23T21:24:44.337Z,1.30
2023-05-23T21:27:11.296Z,1.97
2023-05-23T21:29:37.942Z,2.43
2023-05-23T21:32:04.800Z,4.00
2023-05-23T21:34:31.524Z,2.73
2023-05-23T21:36:58.225Z,2.27
2023-05-23T21:39:26.175Z,1.93
2023-05-23T21:41:55.603Z,1.50
2023-05-23T21:44:22.294Z,2.23
2023-05-23T21:46:48.952Z,1.80
2023-05-23T21:49:15.704Z,2.67
2023-05-23T21:51:43.365Z,2.20
2023-05-23T21:54:10.061Z,1.80
2023-05-23T21:56:36.687Z,1.97
2023-05-23T21:59:04.074Z,2.07
2023-05-23T22:01:30.834Z,2.50
2023-05-23T22:03:57.731Z,3.07
2023-05-23T22:06:24.473Z,1.90
2023-05-23T22:08:51.137Z,1.53
2023-05-23T22:11:18.103Z,1.53
2023-05-23T22:13:45.292Z,2.30
2023-05-23T22:16:11.911Z,1.57
2023-05-23T22:18:51.727Z,1.83
2023-05-23T22:21:18.940Z,2.60
2023-05-23T22:23:45.780Z,3.07
2023-05-23T22:26:12.777Z,2.33
2023-05-23T22:28:39.611Z,1.57
2023-05-23T22:31:06.486Z,2.60
2023-05-23T22:33:33.286Z,0.90
2023-05-23T22:36:00.079Z,2.30
2023-05-23T22:38:26.730Z,1.93
2023-05-23T22:40:53.425Z,1.40
2023-05-23T22:43:21.787Z,1.80
2023-05-23T22:45:50.039Z,1.57
2023-05-23T22:48:19.205Z,2.30
2023-05-23T22:50:46.603Z,2.00
2023-05-23T22:53:16.521Z,0.90
2023-05-23T22:55:43.349Z,1.60
2023-05-23T22:58:10.119Z,1.80
2023-05-23T23:00:37.467Z,2.20
2023-05-23T23:03:04.643Z,1.50
2023-05-23T23:05:31.605Z,2.03
2023-05-23T23:07:58.434Z,1.73
2023-05-23T23:10:25.261Z,2.20
2023-05-23T23:12:51.947Z,1.80
2023-05-23T23:15:18.602Z,1.20
2023-05-23T23:17:45.694Z,2.10
2023-05-23T23:20:12.848Z,1.17
2023-05-23T23:22:40.442Z,2.83
2023-05-23T23:25:10.801Z,1.97
2023-05-23T23:27:38.147Z,1.60
2023-05-23T23:30:08.629Z,1.30
2023-05-23T23:32:35.488Z,1.80
2023-05-23T23:35:02.659Z,1.70
2023-05-23T23:37:29.289Z,2.20
2023-05-23T23:39:56.037Z,1.00
2023-05-23T23:42:22.773Z,1.37
2023-05-23T23:44:49.449Z,1.73
2023-05-23T23:47:16.087Z,1.40
2023-05-23T23:49:42.821Z,1.80
2023-05-23T23:52:09.602Z,1.30
2023-05-23T23:54:36.714Z,2.60
2023-05-23T23:57:03.593Z,1.10
2023-05-23T23:59:30.285Z,2.10
